PWSweather.com
Personal Weather Stations
Station Observations
SBERGENWX
Wood Ridge, NJ 07075

Wood Ridge, NJ 07075

Lat: 40.851667, Lon: -74.088131

Elevation: 177

Station Type: Davis Vantage Vue

http://201weather.com/

High Low Average
Temperature 30.4°F-0.9°C 21.7°F-5.7°C 26.9°F-2.8°C
Dew Point 18.6°F-7.4°C 5.9°F-14.5°C 11.7°F-11.3°C
Winds 2.3 mph 3.7 kmh Calm Calm 1.0 mph SSW1.6 kmh SSW
Wind Gusts 4.6 mph7.4 kmh -- 2.0 mph3.2 kmh
Humidity 64% 36% 53%
Pressure 30.42 in1030.1 mb 30.23 in1023.7 mb -
Precipitation 0.00 in0.0 mm - -
Hour Temp Dew Point Humidity Winds Wind Gusts Pressure Precip Precip Rate Daily Precip Total
12:00 AM 30.4°F-0.9°C 16.2°F-8.8°C 55% Calm Calm 1.2 mph1.9 kmh 30.24 in1024.0 mb - 0.00 in0.0 mm 0.00 in0.0 mm
12:15 AM 29.9°F-1.2°C 15.7°F-9.1°C 55% 1.2 mph NW1.9 kmh NW 1.2 mph1.9 kmh 30.25 in1024.4 mb - 0.00 in0.0 mm 0.00 in0.0 mm
12:30 AM 29.5°F-1.4°C 15.3°F-9.3°C 55% Calm Calm 2.3 mph3.7 kmh 30.25 in1024.4 mb - 0.00 in0.0 mm 0.00 in0.0 mm
12:45 AM 29.1°F-1.6°C 14.9°F-9.5°C 55% Calm Calm 1.2 mph1.9 kmh 30.25 in1024.4 mb - 0.00 in0.0 mm 0.00 in0.0 mm
01:00 AM 28.5°F-1.9°C 13.1°F-10.5°C 52% 1.2 mph NW1.9 kmh NW 3.5 mph5.6 kmh 30.26 in1024.7 mb - 0.00 in0.0 mm 0.00 in0.0 mm
01:15 AM 28.0°F-2.2°C 10.3°F-12.1°C 47% 2.3 mph NW3.7 kmh NW 3.5 mph5.6 kmh 30.26 in1024.7 mb - 0.00 in0.0 mm 0.00 in0.0 mm
01:30 AM 27.5°F-2.5°C 7.9°F-13.4°C 43% 1.2 mph NW1.9 kmh NW 1.2 mph1.9 kmh 30.27 in1025.1 mb - 0.00 in0.0 mm 0.00 in0.0 mm
01:45 AM 27.0°F-2.8°C 7.4°F-13.7°C 43% Calm Calm -- 30.28 in1025.4 mb - 0.00 in0.0 mm 0.00 in0.0 mm
02:00 AM 26.5°F-3.1°C 8.4°F-13.1°C 46% Calm Calm 3.5 mph5.6 kmh 30.29 in1025.7 mb - 0.00 in0.0 mm 0.00 in0.0 mm
02:15 AM 26.0°F-3.3°C 9.4°F-12.6°C 49% Calm Calm -- 30.29 in1025.7 mb - 0.00 in0.0 mm 0.00 in0.0 mm
02:30 AM 25.7°F-3.5°C 7.7°F-13.5°C 46% Calm Calm 2.3 mph3.7 kmh 30.29 in1025.7 mb - 0.00 in0.0 mm 0.00 in0.0 mm
02:45 AM 25.5°F-3.6°C 6.1°F-14.4°C 43% Calm Calm 2.3 mph3.7 kmh 30.29 in1025.7 mb - 0.00 in0.0 mm 0.00 in0.0 mm
03:00 AM 25.3°F-3.7°C 5.9°F-14.5°C 43% 1.2 mph NNW1.9 kmh NNW 3.5 mph5.6 kmh 30.29 in1025.7 mb - 0.00 in0.0 mm 0.00 in0.0 mm
03:15 AM 25.0°F-3.9°C 6.6°F-14.1°C 45% Calm Calm 1.2 mph1.9 kmh 30.30 in1026.1 mb - 0.00 in0.0 mm 0.00 in0.0 mm
03:30 AM 24.7°F-4.1°C 6.8°F-14.0°C 46% Calm Calm 1.2 mph1.9 kmh 30.30 in1026.1 mb - 0.00 in0.0 mm 0.00 in0.0 mm
03:45 AM 24.4°F-4.2°C 7.5°F-13.6°C 48% Calm Calm 2.3 mph3.7 kmh 30.30 in1026.1 mb - 0.00 in0.0 mm 0.00 in0.0 mm
04:00 AM 24.1°F-4.4°C 8.1°F-13.3°C 50% Calm Calm 1.2 mph1.9 kmh 30.31 in1026.4 mb - 0.00 in0.0 mm 0.00 in0.0 mm
04:15 AM 23.8°F-4.6°C 8.7°F-12.9°C 52% Calm Calm 2.3 mph3.7 kmh 30.32 in1026.8 mb - 0.00 in0.0 mm 0.00 in0.0 mm
04:30 AM 23.5°F-4.7°C 9.3°F-12.6°C 54% Calm Calm -- 30.32 in1026.8 mb - 0.00 in0.0 mm 0.00 in0.0 mm
04:45 AM 23.2°F-4.9°C 9.4°F-12.6°C 55% Calm Calm -- 30.32 in1026.8 mb - 0.00 in0.0 mm 0.00 in0.0 mm
05:00 AM 23.0°F-5.0°C 9.6°F-12.4°C 56% Calm Calm 3.5 mph5.6 kmh 30.32 in1026.8 mb - 0.00 in0.0 mm 0.00 in0.0 mm
05:15 AM 22.9°F-5.1°C 9.9°F-12.3°C 57% Calm Calm 1.2 mph1.9 kmh 30.33 in1027.1 mb - 0.00 in0.0 mm 0.00 in0.0 mm
05:30 AM 22.7°F-5.2°C 10.1°F-12.2°C 58% Calm Calm -- 30.34 in1027.4 mb - 0.00 in0.0 mm 0.00 in0.0 mm
05:45 AM 22.5°F-5.3°C 9.9°F-12.3°C 58% 1.2 mph N1.9 kmh N 1.2 mph1.9 kmh 30.34 in1027.4 mb - 0.00 in0.0 mm 0.00 in0.0 mm
06:00 AM 22.4°F-5.3°C 9.8°F-12.3°C 58% Calm Calm 1.2 mph1.9 kmh 30.35 in1027.8 mb - 0.00 in0.0 mm 0.00 in0.0 mm
06:15 AM 22.2°F-5.4°C 10.0°F-12.2°C 59% Calm Calm 1.2 mph1.9 kmh 30.35 in1027.8 mb - 0.00 in0.0 mm 0.00 in0.0 mm
06:30 AM 22.0°F-5.6°C 10.2°F-12.1°C 60% Calm Calm -- 30.36 in1028.1 mb - 0.00 in0.0 mm 0.00 in0.0 mm
06:45 AM 21.8°F-5.7°C 10.0°F-12.2°C 60% Calm Calm -- 30.37 in1028.4 mb - 0.00 in0.0 mm 0.00 in0.0 mm
07:00 AM 21.7°F-5.7°C 9.9°F-12.3°C 60% Calm Calm 1.2 mph1.9 kmh 30.37 in1028.4 mb - 0.00 in0.0 mm 0.00 in0.0 mm
07:15 AM 21.7°F-5.7°C 10.3°F-12.1°C 61% Calm Calm 1.2 mph1.9 kmh 30.38 in1028.8 mb - 0.00 in0.0 mm 0.00 in0.0 mm
07:30 AM 21.8°F-5.7°C 10.8°F-11.8°C 62% Calm Calm -- 30.38 in1028.8 mb - 0.00 in0.0 mm 0.00 in0.0 mm
07:45 AM 22.0°F-5.6°C 10.6°F-11.9°C 61% Calm Calm -- 30.38 in1028.8 mb - 0.00 in0.0 mm 0.00 in0.0 mm
08:00 AM 22.1°F-5.5°C 10.3°F-12.1°C 60% 1.2 mph N1.9 kmh N 1.2 mph1.9 kmh 30.39 in1029.1 mb - 0.00 in0.0 mm 0.00 in0.0 mm
08:15 AM 22.6°F-5.2°C 10.8°F-11.8°C 60% 1.2 mph N1.9 kmh N 2.3 mph3.7 kmh 30.39 in1029.1 mb - 0.00 in0.0 mm 0.00 in0.0 mm
08:30 AM 22.7°F-5.2°C 10.5°F-11.9°C 59% Calm Calm -- 30.40 in1029.5 mb - 0.00 in0.0 mm 0.00 in0.0 mm
08:45 AM 22.8°F-5.1°C 10.6°F-11.9°C 59% 1.2 mph NNE1.9 kmh NNE 3.5 mph5.6 kmh 30.40 in1029.5 mb - 0.00 in0.0 mm 0.00 in0.0 mm
09:00 AM 22.9°F-5.1°C 10.7°F-11.8°C 59% Calm Calm 2.3 mph3.7 kmh 30.41 in1029.8 mb - 0.00 in0.0 mm 0.00 in0.0 mm
09:15 AM 23.2°F-4.9°C 11.0°F-11.7°C 59% Calm Calm 1.2 mph1.9 kmh 30.41 in1029.8 mb - 0.00 in0.0 mm 0.00 in0.0 mm
09:30 AM 23.5°F-4.7°C 10.9°F-11.7°C 58% Calm Calm 1.2 mph1.9 kmh 30.41 in1029.8 mb - 0.00 in0.0 mm 0.00 in0.0 mm
09:45 AM 24.0°F-4.4°C 11.3°F-11.5°C 58% Calm Calm 2.3 mph3.7 kmh 30.41 in1029.8 mb - 0.00 in0.0 mm 0.00 in0.0 mm
10:00 AM 24.3°F-4.3°C 10.8°F-11.8°C 56% 1.2 mph N1.9 kmh N 3.5 mph5.6 kmh 30.42 in1030.1 mb - 0.00 in0.0 mm 0.00 in0.0 mm
10:15 AM 24.8°F-4.0°C 11.3°F-11.5°C 56% 1.2 mph NNW1.9 kmh NNW 1.2 mph1.9 kmh 30.42 in1030.1 mb - 0.00 in0.0 mm 0.00 in0.0 mm
10:30 AM 25.2°F-3.8°C 11.2°F-11.6°C 55% Calm Calm -- 30.42 in1030.1 mb - 0.00 in0.0 mm 0.00 in0.0 mm
10:45 AM 26.3°F-3.2°C 11.5°F-11.4°C 53% 1.2 mph NE1.9 kmh NE 3.5 mph5.6 kmh 30.42 in1030.1 mb - 0.00 in0.0 mm 0.00 in0.0 mm
11:00 AM 26.6°F-3.0°C 11.3°F-11.5°C 52% 1.2 mph W1.9 kmh W 2.3 mph3.7 kmh 30.42 in1030.1 mb - 0.00 in0.0 mm 0.00 in0.0 mm
11:15 AM 26.6°F-3.0°C 10.4°F-12.0°C 50% 1.2 mph NNE1.9 kmh NNE 2.3 mph3.7 kmh 30.41 in1029.8 mb - 0.00 in0.0 mm 0.00 in0.0 mm
11:30 AM 27.1°F-2.7°C 10.9°F-11.7°C 50% 1.2 mph WSW1.9 kmh WSW 3.5 mph5.6 kmh 30.40 in1029.5 mb - 0.00 in0.0 mm 0.00 in0.0 mm
11:45 AM 27.1°F-2.7°C 10.5°F-11.9°C 49% 1.2 mph NNE1.9 kmh NNE 2.3 mph3.7 kmh 30.39 in1029.1 mb - 0.00 in0.0 mm 0.00 in0.0 mm
12:00 PM 27.4°F-2.6°C 9.8°F-12.3°C 47% 1.2 mph NE1.9 kmh NE 3.5 mph5.6 kmh 30.38 in1028.8 mb - 0.00 in0.0 mm 0.00 in0.0 mm
12:15 PM 27.9°F-2.3°C 6.7°F-14.1°C 40% Calm Calm 1.2 mph1.9 kmh 30.37 in1028.4 mb - 0.00 in0.0 mm 0.00 in0.0 mm
12:30 PM 28.1°F-2.2°C 6.3°F-14.3°C 39% Calm Calm 1.2 mph1.9 kmh 30.36 in1028.1 mb - 0.00 in0.0 mm 0.00 in0.0 mm
12:45 PM 28.5°F-1.9°C 7.2°F-13.8°C 40% 1.2 mph NE1.9 kmh NE 1.2 mph1.9 kmh 30.35 in1027.8 mb - 0.00 in0.0 mm 0.00 in0.0 mm
01:00 PM 28.9°F-1.7°C 7.6°F-13.6°C 40% Calm Calm -- 30.34 in1027.4 mb - 0.00 in0.0 mm 0.00 in0.0 mm
01:15 PM 28.9°F-1.7°C 8.1°F-13.3°C 41% Calm Calm 1.2 mph1.9 kmh 30.34 in1027.4 mb - 0.00 in0.0 mm 0.00 in0.0 mm
01:30 PM 29.8°F-1.2°C 9.0°F-12.8°C 41% Calm Calm 1.2 mph1.9 kmh 30.33 in1027.1 mb - 0.00 in0.0 mm 0.00 in0.0 mm
01:45 PM 29.9°F-1.2°C 9.0°F-12.8°C 41% Calm Calm 2.3 mph3.7 kmh 30.33 in1027.1 mb - 0.00 in0.0 mm 0.00 in0.0 mm
02:00 PM 29.7°F-1.3°C 8.3°F-13.2°C 40% Calm Calm -- 30.34 in1027.4 mb - 0.00 in0.0 mm 0.00 in0.0 mm
02:15 PM 29.8°F-1.2°C 7.2°F-13.8°C 38% Calm Calm -- 30.33 in1027.1 mb - 0.00 in0.0 mm 0.00 in0.0 mm
02:30 PM 30.1°F-1.1°C 6.3°F-14.3°C 36% 1.2 mph SE1.9 kmh SE 1.2 mph1.9 kmh 30.32 in1026.8 mb - 0.00 in0.0 mm 0.00 in0.0 mm
02:45 PM 29.8°F-1.2°C 7.2°F-13.8°C 38% Calm Calm 1.2 mph1.9 kmh 30.32 in1026.8 mb - 0.00 in0.0 mm 0.00 in0.0 mm
03:00 PM 29.7°F-1.3°C 5.9°F-14.5°C 36% Calm Calm -- 30.32 in1026.8 mb - 0.00 in0.0 mm 0.00 in0.0 mm
03:15 PM 29.5°F-1.4°C 6.4°F-14.2°C 37% 1.2 mph SSE1.9 kmh SSE 1.2 mph1.9 kmh 30.31 in1026.4 mb - 0.00 in0.0 mm 0.00 in0.0 mm
03:30 PM 29.6°F-1.3°C 6.5°F-14.2°C 37% Calm Calm 1.2 mph1.9 kmh 30.30 in1026.1 mb - 0.00 in0.0 mm 0.00 in0.0 mm
03:45 PM 29.6°F-1.3°C 10.3°F-12.1°C 44% 1.2 mph SE1.9 kmh SE 3.5 mph5.6 kmh 30.30 in1026.1 mb - 0.00 in0.0 mm 0.00 in0.0 mm
04:00 PM 29.5°F-1.4°C 10.7°F-11.8°C 45% Calm Calm 2.3 mph3.7 kmh 30.29 in1025.7 mb - 0.00 in0.0 mm 0.00 in0.0 mm
04:15 PM 29.3°F-1.5°C 10.6°F-11.9°C 45% 1.2 mph SE1.9 kmh SE 2.3 mph3.7 kmh 30.29 in1025.7 mb - 0.00 in0.0 mm 0.00 in0.0 mm
04:30 PM 29.1°F-1.6°C 9.9°F-12.3°C 44% 1.2 mph SE1.9 kmh SE 3.5 mph5.6 kmh 30.30 in1026.1 mb - 0.00 in0.0 mm 0.00 in0.0 mm
04:45 PM 29.0°F-1.7°C 8.2°F-13.2°C 41% 2.3 mph SE3.7 kmh SE 4.6 mph7.4 kmh 30.31 in1026.4 mb - 0.00 in0.0 mm 0.00 in0.0 mm
05:00 PM 28.9°F-1.7°C 9.7°F-12.4°C 44% 1.2 mph SSW1.9 kmh SSW 2.3 mph3.7 kmh 30.30 in1026.1 mb - 0.00 in0.0 mm 0.00 in0.0 mm
05:15 PM 28.8°F-1.8°C 14.6°F-9.7°C 55% 1.2 mph SSW1.9 kmh SSW 1.2 mph1.9 kmh 30.29 in1025.7 mb - 0.00 in0.0 mm 0.00 in0.0 mm
05:30 PM 28.9°F-1.7°C 15.2°F-9.3°C 56% 1.2 mph S1.9 kmh S 1.2 mph1.9 kmh 30.29 in1025.7 mb - 0.00 in0.0 mm 0.00 in0.0 mm
05:45 PM 29.0°F-1.7°C 15.7°F-9.1°C 57% 1.2 mph SSW1.9 kmh SSW 2.3 mph3.7 kmh 30.30 in1026.1 mb - 0.00 in0.0 mm 0.00 in0.0 mm
06:00 PM 29.0°F-1.7°C 16.0°F-8.9°C 58% 2.3 mph SW3.7 kmh SW 3.5 mph5.6 kmh 30.30 in1026.1 mb - 0.00 in0.0 mm 0.00 in0.0 mm
06:15 PM 28.9°F-1.7°C 16.4°F-8.7°C 59% 2.3 mph SSW3.7 kmh SSW 4.6 mph7.4 kmh 30.31 in1026.4 mb - 0.00 in0.0 mm 0.00 in0.0 mm
06:30 PM 28.9°F-1.7°C 16.7°F-8.5°C 60% 1.2 mph S1.9 kmh S 4.6 mph7.4 kmh 30.31 in1026.4 mb - 0.00 in0.0 mm 0.00 in0.0 mm
06:45 PM 28.8°F-1.8°C 16.6°F-8.6°C 60% Calm Calm 1.2 mph1.9 kmh 30.30 in1026.1 mb - 0.00 in0.0 mm 0.00 in0.0 mm
07:00 PM 28.6°F-1.9°C 16.5°F-8.6°C 60% 1.2 mph S1.9 kmh S 2.3 mph3.7 kmh 30.30 in1026.1 mb - 0.00 in0.0 mm 0.00 in0.0 mm
07:15 PM 28.5°F-1.9°C 16.0°F-8.9°C 59% Calm Calm -- 30.30 in1026.1 mb - 0.00 in0.0 mm 0.00 in0.0 mm
07:30 PM 28.6°F-1.9°C 16.5°F-8.6°C 60% Calm Calm 1.2 mph1.9 kmh 30.30 in1026.1 mb - 0.00 in0.0 mm 0.00 in0.0 mm
07:45 PM 28.6°F-1.9°C 16.8°F-8.4°C 61% Calm Calm -- 30.30 in1026.1 mb - 0.00 in0.0 mm 0.00 in0.0 mm
08:00 PM 28.8°F-1.8°C 17.4°F-8.1°C 62% Calm Calm 2.3 mph3.7 kmh 30.29 in1025.7 mb - 0.00 in0.0 mm 0.00 in0.0 mm
08:15 PM 28.9°F-1.7°C 17.5°F-8.1°C 62% Calm Calm 1.2 mph1.9 kmh 30.28 in1025.4 mb - 0.00 in0.0 mm 0.00 in0.0 mm
08:30 PM 29.0°F-1.7°C 18.0°F-7.8°C 63% Calm Calm 2.3 mph3.7 kmh 30.28 in1025.4 mb - 0.00 in0.0 mm 0.00 in0.0 mm
08:45 PM 29.1°F-1.6°C 18.4°F-7.6°C 64% Calm Calm -- 30.27 in1025.1 mb - 0.00 in0.0 mm 0.00 in0.0 mm
09:00 PM 29.2°F-1.6°C 18.5°F-7.5°C 64% Calm Calm -- 30.27 in1025.1 mb - 0.00 in0.0 mm 0.00 in0.0 mm
09:15 PM 29.2°F-1.6°C 18.5°F-7.5°C 64% 1.2 mph SE1.9 kmh SE 1.2 mph1.9 kmh 30.26 in1024.7 mb - 0.00 in0.0 mm 0.00 in0.0 mm
09:30 PM 29.3°F-1.5°C 18.6°F-7.4°C 64% Calm Calm 1.2 mph1.9 kmh 30.25 in1024.4 mb - 0.00 in0.0 mm 0.00 in0.0 mm
09:45 PM 29.4°F-1.4°C 18.0°F-7.8°C 62% 1.2 mph SE1.9 kmh SE 2.3 mph3.7 kmh 30.24 in1024.0 mb - 0.00 in0.0 mm 0.00 in0.0 mm
10:00 PM 29.5°F-1.4°C 17.7°F-7.9°C 61% 1.2 mph SE1.9 kmh SE 2.3 mph3.7 kmh 30.24 in1024.0 mb - 0.00 in0.0 mm 0.00 in0.0 mm
10:15 PM 29.7°F-1.3°C 17.5°F-8.1°C 60% 2.3 mph SE3.7 kmh SE 3.5 mph5.6 kmh 30.24 in1024.0 mb - 0.00 in0.0 mm 0.00 in0.0 mm
10:30 PM 29.8°F-1.2°C 17.2°F-8.2°C 59% Calm Calm 1.2 mph1.9 kmh 30.24 in1024.0 mb - 0.00 in0.0 mm 0.00 in0.0 mm
10:45 PM 29.7°F-1.3°C 16.7°F-8.5°C 58% 1.2 mph SE1.9 kmh SE 2.3 mph3.7 kmh 30.24 in1024.0 mb - 0.00 in0.0 mm 0.00 in0.0 mm
11:00 PM 29.8°F-1.2°C 16.8°F-8.4°C 58% Calm Calm 1.2 mph1.9 kmh 30.24 in1024.0 mb - 0.00 in0.0 mm 0.00 in0.0 mm
11:15 PM 29.8°F-1.2°C 16.8°F-8.4°C 58% 1.2 mph SE1.9 kmh SE 1.2 mph1.9 kmh 30.24 in1024.0 mb - 0.00 in0.0 mm 0.00 in0.0 mm
11:30 PM 29.8°F-1.2°C 16.8°F-8.4°C 58% Calm Calm 1.2 mph1.9 kmh 30.24 in1024.0 mb - 0.00 in0.0 mm 0.00 in0.0 mm
11:45 PM 29.7°F-1.3°C 16.7°F-8.5°C 58% Calm Calm -- 30.23 in1023.7 mb - 0.00 in0.0 mm 0.00 in0.0 mm